Time;durP1;ratioP1;P1;durP2;ratioP2;P2;SDS_P1;SDS_P2;PMS_P1;PMS_P2;Temp;Humidity;BMP_temperature;BMP_pressure;BME280_temperature;BME280_humidity;BME280_pressure;Samples;Min_cycle;Max_cycle;Signal;HPM_P1;HPM_P2
2023/07/10 00:00:51;;;;;;;;;;;;;;;19.48;89.90;101909.31;5006404;28;1073;-72
2023/07/10 00:03:16;;;;;;;;;;;;;;;19.42;89.48;101902.03;5007037;28;1228;-72
2023/07/10 00:05:41;;;;;;;;;;;;;;;19.42;89.18;101918.66;5009195;28;1898;-72
2023/07/10 00:08:06;;;;;;;;;;;;;;;19.45;89.41;101922.78;5015072;28;1094;-73
2023/07/10 00:10:31;;;;;;;;;;;;;;;19.46;89.20;101925.25;5005699;28;1235;-72
2023/07/10 00:12:57;;;;;;;;;;;;;;;19.35;88.86;101928.97;5011836;28;1307;-72
2023/07/10 00:15:23;;;;;;;;;;;;;;;19.28;88.86;101922.69;5004688;28;1181;-74
2023/07/10 00:17:50;;;;;;;;;;;;;;;19.25;89.07;101922.16;5008384;28;1291;-72
2023/07/10 00:20:17;;;;;;;;;;;;;;;19.17;89.12;101914.25;5012272;28;1100;-72
2023/07/10 00:22:43;;;;;;;;;;;;;;;19.08;89.40;101903.66;5009237;28;1308;-72
2023/07/10 00:25:09;;;;;;;;;;;;;;;19.04;89.29;101907.59;5007356;28;1895;-72
2023/07/10 00:27:34;;;;;;;;;;;;;;;19.05;89.64;101911.03;5013983;28;2401;-72
2023/07/10 00:29:59;;;;;;;;;;;;;;;19.00;89.62;101908.88;5009339;28;1180;-72
2023/07/10 00:32:30;;;;;;;;;;;;;;;18.97;90.55;101903.91;5015098;28;1125;-72
2023/07/10 00:34:55;;;;;;;;;;;;;;;18.94;89.88;101906.84;5029911;28;1659;-71
2023/07/10 00:37:21;;;;;;;;;;;;;;;18.93;90.17;101918.34;5010677;28;1205;-72
2023/07/10 00:39:46;;;;;;;;;;;;;;;19.02;90.39;101920.03;5004668;28;1094;-72
2023/07/10 00:42:17;;;;;;;;;;;;;;;18.91;90.32;101925.56;5007431;28;1594;-72
2023/07/10 00:44:51;;;;;;;;;;;;;;;18.92;90.52;101921.13;5002543;28;1886;-72
2023/07/10 00:47:16;;;;;;;;;;;;;;;18.84;90.56;101916.63;5003372;28;1179;-72
2023/07/10 00:49:45;;;;;;;;;;;;;;;18.82;90.91;101922.06;5008021;28;1021;-72
2023/07/10 00:52:19;;;;;;;;;;;;;;;18.79;90.96;101916.25;5003860;28;1102;-73
2023/07/10 00:54:46;;;;;;;;;;;;;;;18.73;90.51;101915.06;5006916;28;2361;-72
2023/07/10 00:57:19;;;;;;;;;;;;;;;18.72;90.78;101904.72;5010685;28;1268;-72
2023/07/10 00:59:45;;;;;;;;;;;;;;;18.73;90.78;101901.94;5006346;28;1124;-72
2023/07/10 01:02:13;;;;;;;;;;;;;;;18.69;90.87;101899.75;5008546;28;1271;-72
2023/07/10 01:04:40;;;;;;;;;;;;;;;18.67;90.57;101912.19;5003782;28;1907;-72
2023/07/10 01:07:14;;;;;;;;;;;;;;;18.67;90.59;101922.69;5008258;28;1093;-72
2023/07/10 01:09:41;;;;;;;;;;;;;;;18.66;90.39;101926.31;5002919;28;1319;-71
2023/07/10 01:12:06;;;;;;;;;;;;;;;18.66;90.44;101921.06;5000251;28;1637;-72
2023/07/10 01:14:34;;;;;;;;;;;;;;;18.67;90.71;101912.19;5001165;28;1265;-72
2023/07/10 01:17:00;;;;;;;;;;;;;;;18.70;90.44;101917.19;5007924;28;1113;-72
2023/07/10 01:19:25;;;;;;;;;;;;;;;18.65;90.52;101920.25;5010519;28;1519;-72
2023/07/10 01:21:50;;;;;;;;;;;;;;;18.59;90.83;101912.97;5009906;28;1339;-72
2023/07/10 01:24:16;;;;;;;;;;;;;;;18.58;90.93;101914.75;5008453;28;1388;-72
2023/07/10 01:26:42;;;;;;;;;;;;;;;18.60;91.07;101917.22;5007165;28;1945;-72
2023/07/10 01:29:17;;;;;;;;;;;;;;;18.62;91.26;101924.97;5010482;28;1207;-72
2023/07/10 01:31:42;;;;;;;;;;;;;;;18.65;91.26;101935.19;5011834;28;1090;-74
2023/07/10 01:34:09;;;;;;;;;;;;;;;18.65;90.98;101917.59;5008614;28;1146;-72
2023/07/10 01:36:37;;;;;;;;;;;;;;;18.65;90.98;101929.94;5014734;28;1114;-72
2023/07/10 01:39:02;;;;;;;;;;;;;;;18.62;90.82;101930.22;5010219;28;1176;-72
2023/07/10 01:41:39;;;;;;;;;;;;;;;18.58;90.85;101922.66;5011164;28;1847;-72
2023/07/10 01:44:37;;;;;;;;;;;;;;;18.61;90.96;101913.63;5010272;28;1139;-72
2023/07/10 01:47:03;;;;;;;;;;;;;;;18.60;90.84;101919.03;4962780;28;2600;-72
2023/07/10 01:49:31;;;;;;;;;;;;;;;18.57;90.86;101923.59;5019171;28;1121;-72
2023/07/10 01:51:57;;;;;;;;;;;;;;;18.52;91.23;101915.38;5004666;28;1108;-72
2023/07/10 01:54:23;;;;;;;;;;;;;;;18.44;90.99;101907.41;5009140;28;1213;-72
2023/07/10 01:56:48;;;;;;;;;;;;;;;18.46;90.73;101901.97;5009059;28;1261;-72
2023/07/10 01:59:13;;;;;;;;;;;;;;;18.48;90.65;101913.19;5006448;28;1257;-72
2023/07/10 02:01:40;;;;;;;;;;;;;;;18.48;90.63;101908.75;5006475;28;958;-72
2023/07/10 02:04:06;;;;;;;;;;;;;;;18.47;90.79;101907.09;5004731;28;1316;-72
2023/07/10 02:06:33;;;;;;;;;;;;;;;18.46;90.87;101900.19;5009196;28;1890;-72
2023/07/10 02:08:58;;;;;;;;;;;;;;;18.47;90.79;101906.28;5005067;28;1446;-72
2023/07/10 02:11:23;;;;;;;;;;;;;;;18.45;90.63;101906.41;5004849;28;1116;-72
2023/07/10 02:13:48;;;;;;;;;;;;;;;18.45;90.95;101908.22;5003110;28;2449;-72
2023/07/10 02:16:14;;;;;;;;;;;;;;;18.45;90.95;101897.72;5017728;28;1089;-72
2023/07/10 02:18:39;;;;;;;;;;;;;;;18.48;90.92;101898.25;5006430;28;1566;-72
2023/07/10 02:21:05;;;;;;;;;;;;;;;18.51;90.83;101903.19;5013447;28;1022;-72
2023/07/10 02:23:30;;;;;;;;;;;;;;;18.56;90.83;101903.56;5011386;28;1384;-72
2023/07/10 02:25:55;;;;;;;;;;;;;;;18.62;90.41;101901.31;5013875;28;2215;-72
2023/07/10 02:28:21;;;;;;;;;;;;;;;18.66;90.47;101897.41;5005829;28;1300;-72
2023/07/10 02:30:46;;;;;;;;;;;;;;;18.64;90.30;101904.59;5002594;28;1362;-72
2023/07/10 02:33:11;;;;;;;;;;;;;;;18.56;90.18;101908.81;5009588;28;1216;-72
2023/07/10 02:35:36;;;;;;;;;;;;;;;18.52;90.39;101910.13;5006621;28;1110;-72
2023/07/10 02:38:01;;;;;;;;;;;;;;;18.48;90.41;101924.53;5018828;28;2504;-72
2023/07/10 02:40:27;;;;;;;;;;;;;;;18.43;90.40;101932.03;5004747;28;1533;-71
2023/07/10 02:42:52;;;;;;;;;;;;;;;18.39;90.52;101935.91;5015193;28;1102;-72
2023/07/10 02:45:18;;;;;;;;;;;;;;;18.37;90.41;101932.63;5003796;28;1890;-72
2023/07/10 02:47:44;;;;;;;;;;;;;;;18.35;90.63;101933.72;5004333;28;1188;-72
2023/07/10 02:50:12;;;;;;;;;;;;;;;18.32;90.75;101929.59;5011914;28;1081;-72
2023/07/10 02:52:43;;;;;;;;;;;;;;;18.31;90.77;101935.84;5014678;28;1024;-72
2023/07/10 02:55:08;;;;;;;;;;;;;;;18.30;90.86;101923.69;5010035;28;1110;-72
2023/07/10 02:57:34;;;;;;;;;;;;;;;18.21;90.40;101919.31;5007808;28;1196;-72
2023/07/10 02:59:59;;;;;;;;;;;;;;;18.25;90.69;101931.19;5008671;28;1237;-72
2023/07/10 03:02:24;;;;;;;;;;;;;;;18.23;90.76;101935.75;5005060;28;1267;-72
2023/07/10 03:04:49;;;;;;;;;;;;;;;18.23;90.87;101933.09;5004733;28;1898;-72
2023/07/10 03:07:15;;;;;;;;;;;;;;;18.19;90.94;101939.66;5009738;28;971;-72
2023/07/10 03:09:40;;;;;;;;;;;;;;;18.15;90.61;101943.53;5008160;28;1132;-72
2023/07/10 03:12:05;;;;;;;;;;;;;;;18.15;90.47;101943.53;5006717;28;1124;-72
2023/07/10 03:14:31;;;;;;;;;;;;;;;18.15;90.44;101948.78;5010760;28;1324;-72
2023/07/10 03:16:56;;;;;;;;;;;;;;;18.15;90.39;101951.41;5008903;28;1092;-72
2023/07/10 03:19:21;;;;;;;;;;;;;;;18.14;90.42;101955.03;5012651;28;1169;-72
2023/07/10 03:21:46;;;;;;;;;;;;;;;18.12;90.45;101954.31;5003840;28;1217;-72
2023/07/10 03:24:11;;;;;;;;;;;;;;;18.10;90.53;101964.16;5005166;28;1175;-72
2023/07/10 03:26:37;;;;;;;;;;;;;;;18.08;90.50;101968.75;5009586;28;1898;-72
2023/07/10 03:29:06;;;;;;;;;;;;;;;18.05;90.37;101960.16;5011317;28;1193;-72
2023/07/10 03:31:32;;;;;;;;;;;;;;;18.04;90.57;101960.31;5015518;28;1455;-72
2023/07/10 03:33:57;;;;;;;;;;;;;;;18.00;90.48;101970.28;5002293;28;1145;-72
2023/07/10 03:36:22;;;;;;;;;;;;;;;17.98;90.44;101963.53;5016842;28;1310;-72
2023/07/10 03:38:47;;;;;;;;;;;;;;;17.97;90.69;101972.38;5014700;28;1414;-72
2023/07/10 03:41:13;;;;;;;;;;;;;;;17.93;90.38;101979.72;5013234;28;1318;-72
2023/07/10 03:43:38;;;;;;;;;;;;;;;17.91;90.41;101979.03;5007893;28;1133;-72
2023/07/10 03:46:03;;;;;;;;;;;;;;;17.91;90.36;101978.22;5010971;28;1951;-72
2023/07/10 03:48:28;;;;;;;;;;;;;;;17.89;90.31;101970.50;5006806;28;1095;-72
2023/07/10 03:50:54;;;;;;;;;;;;;;;17.87;90.32;101982.91;5000543;28;1068;-72
2023/07/10 03:53:19;;;;;;;;;;;;;;;17.83;90.20;101980.72;5010269;28;1213;-72
2023/07/10 03:55:48;;;;;;;;;;;;;;;17.78;90.54;101984.63;5014093;28;1515;-72
2023/07/10 03:58:21;;;;;;;;;;;;;;;17.77;90.52;101984.75;4997509;28;1103;-72
2023/07/10 04:00:46;;;;;;;;;;;;;;;17.76;90.21;101980.47;4996618;28;1027;-72
2023/07/10 04:03:12;;;;;;;;;;;;;;;17.73;90.28;101980.78;5004693;28;1245;-72
2023/07/10 04:05:37;;;;;;;;;;;;;;;17.71;90.40;101982.66;5001397;28;1970;-72
2023/07/10 04:08:02;;;;;;;;;;;;;;;17.69;90.47;101982.00;5001090;28;1151;-72
2023/07/10 04:10:27;;;;;;;;;;;;;;;17.64;90.44;101981.59;5000115;28;1078;-72
2023/07/10 04:12:53;;;;;;;;;;;;;;;17.65;90.52;101991.09;4998686;28;1246;-72
2023/07/10 04:15:18;;;;;;;;;;;;;;;17.62;90.64;101983.53;5006146;28;1200;-73
2023/07/10 04:17:43;;;;;;;;;;;;;;;17.60;90.41;101991.53;4997448;28;1234;-73
2023/07/10 04:20:08;;;;;;;;;;;;;;;17.57;90.57;101996.25;5008988;28;1415;-73
2023/07/10 04:22:34;;;;;;;;;;;;;;;17.56;90.43;101994.59;5005250;28;1447;-73
2023/07/10 04:25:05;;;;;;;;;;;;;;;17.54;90.55;101999.97;5007319;28;1897;-73
2023/07/10 04:27:31;;;;;;;;;;;;;;;17.50;90.43;102007.31;5007346;28;903;-72
2023/07/10 04:29:56;;;;;;;;;;;;;;;17.48;90.69;102006.59;5006224;28;1022;-73
2023/07/10 04:32:24;;;;;;;;;;;;;;;17.47;90.38;102007.59;5013362;28;1358;-72
2023/07/10 04:34:50;;;;;;;;;;;;;;;17.44;90.29;102009.69;5011819;28;1141;-72
2023/07/10 04:37:15;;;;;;;;;;;;;;;17.41;90.44;102004.69;5004971;28;1261;-73
2023/07/10 04:39:40;;;;;;;;;;;;;;;17.40;90.50;102011.75;5013798;28;1055;-73
2023/07/10 04:42:05;;;;;;;;;;;;;;;17.40;90.48;102005.69;5013291;28;1108;-72
2023/07/10 04:44:31;;;;;;;;;;;;;;;17.40;90.28;101998.63;5011070;28;1957;-73
2023/07/10 04:46:56;;;;;;;;;;;;;;;17.41;90.18;102000.28;5012856;28;1257;-73
2023/07/10 04:49:21;;;;;;;;;;;;;;;17.41;90.30;102002.91;5013806;28;1375;-72
2023/07/10 04:51:46;;;;;;;;;;;;;;;17.39;90.13;102012.72;5006721;28;1324;-73
2023/07/10 04:54:12;;;;;;;;;;;;;;;17.36;89.99;102001.66;5009189;28;1352;-73
2023/07/10 04:56:37;;;;;;;;;;;;;;;17.39;90.15;102002.22;5009971;28;1082;-72
2023/07/10 04:59:02;;;;;;;;;;;;;;;17.39;90.25;102010.09;5004291;28;1182;-73
2023/07/10 05:01:34;;;;;;;;;;;;;;;17.39;90.15;102004.84;5004957;28;1072;-73
2023/07/10 05:03:59;;;;;;;;;;;;;;;17.42;90.25;102004.56;5005291;28;1057;-73
2023/07/10 05:06:25;;;;;;;;;;;;;;;17.44;90.22;102007.88;4998564;28;1898;-72
2023/07/10 05:08:54;;;;;;;;;;;;;;;17.47;89.92;102007.59;4998006;28;1180;-73
2023/07/10 05:11:21;;;;;;;;;;;;;;;17.51;90.21;102008.13;5003755;28;1289;-73
2023/07/10 05:13:46;;;;;;;;;;;;;;;17.54;90.16;101997.34;5001252;28;1300;-73
2023/07/10 05:16:11;;;;;;;;;;;;;;;17.56;90.14;102011.16;4998736;28;1210;-73
2023/07/10 05:18:36;;;;;;;;;;;;;;;17.59;89.91;102010.88;5012788;28;1088;-73
2023/07/10 05:21:02;;;;;;;;;;;;;;;17.61;89.80;102013.38;5013934;28;1260;-73
2023/07/10 05:23:27;;;;;;;;;;;;;;;17.61;90.12;102018.63;5011651;28;1185;-73
2023/07/10 05:25:53;;;;;;;;;;;;;;;17.61;89.84;102016.81;5004292;28;1926;-73
2023/07/10 05:28:19;;;;;;;;;;;;;;;17.64;90.15;102019.13;5005377;28;1094;-72
2023/07/10 05:30:44;;;;;;;;;;;;;;;17.67;90.21;102024.13;5007443;28;1079;-72
2023/07/10 05:33:10;;;;;;;;;;;;;;;17.69;90.32;102016.09;5006013;28;1169;-72
2023/07/10 05:35:35;;;;;;;;;;;;;;;17.75;90.06;102020.81;5014557;28;1089;-72
2023/07/10 05:38:00;;;;;;;;;;;;;;;17.78;90.29;102025.78;5012917;28;1536;-72
2023/07/10 05:40:26;;;;;;;;;;;;;;;17.83;90.08;102023.53;5012102;28;1149;-72
2023/07/10 05:42:51;;;;;;;;;;;;;;;17.87;90.27;102024.09;5010287;28;1093;-72
2023/07/10 05:45:16;;;;;;;;;;;;;;;17.89;90.33;102025.59;5015194;28;1890;-72
2023/07/10 05:47:41;;;;;;;;;;;;;;;17.93;90.22;102024.34;5010087;28;1009;-72
2023/07/10 05:50:06;;;;;;;;;;;;;;;17.98;89.99;102018.66;5004032;28;986;-72
2023/07/10 05:52:31;;;;;;;;;;;;;;;18.01;90.03;102021.81;5016804;28;1336;-72
2023/07/10 05:54:57;;;;;;;;;;;;;;;18.07;89.85;102022.22;5009052;28;1486;-73
2023/07/10 05:57:22;;;;;;;;;;;;;;;18.11;90.17;102018.31;5014208;28;1394;-73
2023/07/10 05:59:48;;;;;;;;;;;;;;;18.17;89.90;102025.59;5015720;28;1041;-72
2023/07/10 06:02:13;;;;;;;;;;;;;;;18.20;89.91;102036.66;5005071;28;1146;-72
2023/07/10 06:04:38;;;;;;;;;;;;;;;18.23;89.86;102027.66;5010339;28;1953;-72
2023/07/10 06:07:04;;;;;;;;;;;;;;;18.28;90.17;102022.78;5015691;28;1199;-72
2023/07/10 06:09:29;;;;;;;;;;;;;;;18.36;89.89;102024.72;5002160;28;1298;-72
2023/07/10 06:11:54;;;;;;;;;;;;;;;18.45;89.91;102023.81;5002352;28;1105;-72
2023/07/10 06:14:19;;;;;;;;;;;;;;;18.48;89.71;102034.84;5006452;28;1223;-72
2023/07/10 06:16:44;;;;;;;;;;;;;;;18.55;89.52;102038.53;5008704;28;1136;-72
2023/07/10 06:19:10;;;;;;;;;;;;;;;18.58;89.23;102030.38;5004981;28;994;-72
2023/07/10 06:21:35;;;;;;;;;;;;;;;18.57;89.55;102033.94;5649671;22;3674;-77
2023/07/10 06:24:00;;;;;;;;;;;;;;;18.65;89.57;102024.53;5023103;28;1384;-77
2023/07/10 06:26:25;;;;;;;;;;;;;;;18.73;89.35;102022.00;5020867;28;1918;-77
2023/07/10 06:28:50;;;;;;;;;;;;;;;18.79;89.01;102031.91;5026598;28;1076;-77
2023/07/10 06:31:16;;;;;;;;;;;;;;;18.84;88.71;102034.94;5036016;28;1314;-77
2023/07/10 06:33:41;;;;;;;;;;;;;;;18.87;88.33;102034.63;5021215;28;1105;-77
2023/07/10 06:36:07;;;;;;;;;;;;;;;18.91;88.22;102035.97;5020373;28;1197;-77
2023/07/10 06:38:32;;;;;;;;;;;;;;;18.95;88.15;102032.06;5023854;28;1354;-77
2023/07/10 06:40:58;;;;;;;;;;;;;;;19.05;87.63;102035.47;5041714;28;1497;-77
2023/07/10 06:43:23;;;;;;;;;;;;;;;19.08;87.51;102043.03;5021730;28;1068;-78
2023/07/10 06:45:49;;;;;;;;;;;;;;;19.14;87.47;102046.03;5022644;28;1905;-78
2023/07/10 06:48:14;;;;;;;;;;;;;;;19.22;87.42;102054.00;5024415;28;1115;-78
2023/07/10 06:50:40;;;;;;;;;;;;;;;19.28;87.22;102059.47;5028159;28;1499;-79
2023/07/10 06:53:05;;;;;;;;;;;;;;;19.36;86.91;102056.91;5041352;28;1449;-78
2023/07/10 06:55:31;;;;;;;;;;;;;;;19.42;86.78;102060.72;5040988;28;1301;-78
2023/07/10 06:57:56;;;;;;;;;;;;;;;19.46;86.17;102062.09;5026632;28;1075;-78
2023/07/10 07:00:21;;;;;;;;;;;;;;;19.50;85.68;102060.81;5025865;28;1115;-78
2023/07/10 07:02:47;;;;;;;;;;;;;;;19.53;86.05;102063.13;5026815;28;1307;-78
2023/07/10 07:05:12;;;;;;;;;;;;;;;19.65;85.59;102057.63;5042394;28;1898;-78
2023/07/10 07:07:38;;;;;;;;;;;;;;;19.70;84.44;102068.53;5029034;28;1129;-78
2023/07/10 07:10:04;;;;;;;;;;;;;;;19.70;84.21;102063.25;5027762;28;1117;-78
2023/07/10 07:12:29;;;;;;;;;;;;;;;19.68;84.31;102071.31;5017519;28;1014;-79
2023/07/10 07:14:54;;;;;;;;;;;;;;;19.70;83.92;102065.91;5028211;28;1343;-80
2023/07/10 07:17:20;;;;;;;;;;;;;;;19.80;83.63;102064.00;5022844;28;1347;-78
2023/07/10 07:19:46;;;;;;;;;;;;;;;19.85;83.54;102067.00;5024503;28;1488;-78
2023/07/10 07:22:11;;;;;;;;;;;;;;;19.93;83.66;102064.38;5025181;28;1054;-78
2023/07/10 07:24:36;;;;;;;;;;;;;;;20.14;81.88;102066.66;5016628;28;1148;-79
2023/07/10 07:27:02;;;;;;;;;;;;;;;20.01;82.21;102069.69;5026885;28;1092;-78
2023/07/10 07:29:27;;;;;;;;;;;;;;;20.07;81.25;102074.34;5022028;28;1312;-78
2023/07/10 07:31:52;;;;;;;;;;;;;;;20.14;80.83;102077.19;5020692;28;1059;-78
2023/07/10 07:34:18;;;;;;;;;;;;;;;20.17;81.18;102075.03;5032954;28;1167;-78
2023/07/10 07:36:43;;;;;;;;;;;;;;;20.29;80.38;102080.03;5025245;28;1068;-78
2023/07/10 07:39:08;;;;;;;;;;;;;;;20.28;80.55;102078.38;5019578;28;1091;-78
2023/07/10 07:41:34;;;;;;;;;;;;;;;20.31;80.12;102088.63;5017831;28;1225;-78
2023/07/10 07:43:59;;;;;;;;;;;;;;;20.45;79.57;102085.38;5035744;28;1372;-78
2023/07/10 07:46:24;;;;;;;;;;;;;;;20.42;80.71;102076.00;5024330;28;1894;-79
2023/07/10 07:48:50;;;;;;;;;;;;;;;20.57;79.88;102078.84;5020234;28;1137;-78
2023/07/10 07:51:15;;;;;;;;;;;;;;;20.63;80.08;102072.94;5025170;28;1034;-79
2023/07/10 07:53:41;;;;;;;;;;;;;;;20.67;79.28;102074.28;5023742;28;1284;-78
2023/07/10 07:56:06;;;;;;;;;;;;;;;20.75;78.87;102075.28;5019566;28;1447;-78
2023/07/10 07:58:31;;;;;;;;;;;;;;;20.75;79.17;102070.00;5042072;28;1305;-78
2023/07/10 08:00:57;;;;;;;;;;;;;;;20.79;77.18;102077.44;5039419;28;1633;-78
2023/07/10 08:03:22;;;;;;;;;;;;;;;20.78;77.71;102075.78;5043070;28;1398;-78
2023/07/10 08:05:47;;;;;;;;;;;;;;;20.85;78.15;102070.69;5027623;28;1898;-78
2023/07/10 08:08:12;;;;;;;;;;;;;;;20.99;77.58;102067.41;5028168;28;1094;-79
2023/07/10 08:10:42;;;;;;;;;;;;;;;21.04;77.36;102070.38;5026498;28;1224;-78
2023/07/10 08:13:08;;;;;;;;;;;;;;;21.14;77.39;102064.94;5028025;28;1153;-79
2023/07/10 08:15:33;;;;;;;;;;;;;;;21.24;76.78;102064.78;5026448;28;1272;-78
2023/07/10 08:17:59;;;;;;;;;;;;;;;21.30;77.11;102066.78;5018952;28;1198;-80
2023/07/10 08:20:24;;;;;;;;;;;;;;;21.40;77.02;102070.09;5024023;28;1208;-79
2023/07/10 08:22:49;;;;;;;;;;;;;;;21.54;76.44;102082.59;5023284;28;1213;-78
2023/07/10 08:25:14;;;;;;;;;;;;;;;21.56;75.99;102080.63;5023145;28;1969;-78
2023/07/10 08:27:41;;;;;;;;;;;;;;;21.65;75.22;102079.63;5017032;28;1058;-78
2023/07/10 08:30:07;;;;;;;;;;;;;;;21.67;72.49;102072.34;5019618;28;962;-78
2023/07/10 08:32:32;;;;;;;;;;;;;;;21.67;73.65;102082.09;5025065;28;1104;-78
2023/07/10 08:34:57;;;;;;;;;;;;;;;21.69;72.30;102070.38;5023805;28;1042;-78
2023/07/10 08:37:22;;;;;;;;;;;;;;;21.87;72.21;102078.09;5024765;28;1193;-79
2023/07/10 08:39:48;;;;;;;;;;;;;;;21.95;70.14;102079.88;5015928;28;1459;-79
2023/07/10 08:42:18;;;;;;;;;;;;;;;21.98;70.77;102074.28;5023234;28;1144;-79
2023/07/10 08:44:46;;;;;;;;;;;;;;;22.09;70.07;102071.28;5039402;28;1951;-79
2023/07/10 08:47:18;;;;;;;;;;;;;;;22.05;69.63;102075.25;5021593;28;1184;-78
2023/07/10 08:49:54;;;;;;;;;;;;;;;22.12;69.54;102075.41;5022214;28;1383;-79
2023/07/10 08:52:30;;;;;;;;;;;;;;;22.23;67.43;102077.69;5022074;28;1474;-79
2023/07/10 08:54:56;;;;;;;;;;;;;;;22.30;67.11;102077.81;5032627;28;1251;-78
2023/07/10 08:57:35;;;;;;;;;;;;;;;22.26;68.61;102080.00;5032859;28;1085;-78
2023/07/10 09:00:06;;;;;;;;;;;;;;;22.34;68.10;102076.47;5029263;28;1310;-79
2023/07/10 09:02:40;;;;;;;;;;;;;;;22.43;67.77;102075.47;5042030;28;1292;-79
2023/07/10 09:05:07;;;;;;;;;;;;;;;22.58;65.24;102075.53;5045735;28;1890;-79
2023/07/10 09:07:36;;;;;;;;;;;;;;;22.51;66.44;102076.22;5029318;28;1199;-79
2023/07/10 09:10:04;;;;;;;;;;;;;;;22.63;67.26;102074.03;5031125;28;1090;-80
2023/07/10 09:12:36;;;;;;;;;;;;;;;22.74;67.04;102076.28;5026486;28;1119;-80
2023/07/10 09:15:05;;;;;;;;;;;;;;;22.89;66.93;102079.03;5024551;28;1153;-79
2023/07/10 09:17:39;;;;;;;;;;;;;;;22.86;66.99;102083.81;5032235;28;1225;-79
2023/07/10 09:20:06;;;;;;;;;;;;;;;22.96;66.47;102089.72;5044343;28;1307;-79
2023/07/10 09:22:34;;;;;;;;;;;;;;;22.99;66.43;102084.88;5023558;28;1104;-79
2023/07/10 09:24:59;;;;;;;;;;;;;;;23.07;66.53;102080.56;5023875;28;1898;-79
2023/07/10 09:27:25;;;;;;;;;;;;;;;23.19;63.81;102093.19;5023439;28;1172;-79
2023/07/10 09:29:52;;;;;;;;;;;;;;;23.05;63.69;102091.28;5029568;28;1213;-79
2023/07/10 09:32:18;;;;;;;;;;;;;;;23.09;64.95;102089.94;5023337;28;1194;-79
2023/07/10 09:34:48;;;;;;;;;;;;;;;23.19;64.19;102085.25;5025938;28;1081;-79
2023/07/10 09:37:17;;;;;;;;;;;;;;;23.21;64.15;102087.72;5029346;28;1186;-79
2023/07/10 09:39:43;;;;;;;;;;;;;;;23.26;64.31;102090.66;5025314;28;1082;-79
2023/07/10 09:42:12;;;;;;;;;;;;;;;23.44;63.87;102092.97;5031330;28;1276;-79
2023/07/10 09:44:39;;;;;;;;;;;;;;;23.48;63.31;102083.69;5029941;28;1214;-79
2023/07/10 09:47:09;;;;;;;;;;;;;;;23.44;62.65;102082.38;5026734;28;1953;-79
2023/07/10 09:49:37;;;;;;;;;;;;;;;23.54;62.98;102083.78;5025650;28;1287;-79
2023/07/10 09:52:03;;;;;;;;;;;;;;;23.72;64.60;102088.75;5044353;28;1221;-79
2023/07/10 09:54:36;;;;;;;;;;;;;;;23.83;62.24;102087.50;5033614;28;1227;-79
2023/07/10 09:57:03;;;;;;;;;;;;;;;23.91;63.32;102073.31;5032539;28;1002;-79
2023/07/10 09:59:30;;;;;;;;;;;;;;;24.22;60.37;102081.09;5039354;28;1124;-79
2023/07/10 10:01:55;;;;;;;;;;;;;;;24.03;61.46;102082.50;5034618;28;913;-79
2023/07/10 10:04:25;;;;;;;;;;;;;;;24.03;59.98;102085.16;5028754;28;1058;-79
2023/07/10 10:07:00;;;;;;;;;;;;;;;24.08;61.21;102080.09;5034926;28;1949;-79
2023/07/10 10:09:27;;;;;;;;;;;;;;;24.23;60.02;102091.50;5026176;28;1272;-78
2023/07/10 10:11:55;;;;;;;;;;;;;;;24.28;60.73;102077.72;5040243;28;1376;-79
2023/07/10 10:14:22;;;;;;;;;;;;;;;24.36;59.41;102083.75;5036009;28;1137;-79
2023/07/10 10:16:54;;;;;;;;;;;;;;;24.40;60.34;102076.25;5031434;28;1209;-79
2023/07/10 10:19:35;;;;;;;;;;;;;;;24.44;59.56;102080.19;5036331;28;1066;-79
2023/07/10 10:22:00;;;;;;;;;;;;;;;24.39;59.78;102082.56;5026303;28;1271;-79
2023/07/10 10:24:30;;;;;;;;;;;;;;;24.43;59.65;102077.69;5026927;28;1232;-79
2023/07/10 10:27:15;;;;;;;;;;;;;;;24.44;59.13;102084.66;5026332;28;1953;-79
2023/07/10 10:29:47;;;;;;;;;;;;;;;24.48;60.19;102080.63;5037359;28;1247;-79
2023/07/10 10:32:15;;;;;;;;;;;;;;;24.58;59.88;102089.09;5020745;28;921;-79
2023/07/10 10:34:46;;;;;;;;;;;;;;;24.71;59.54;102081.28;5021912;28;1287;-79
2023/07/10 10:37:14;;;;;;;;;;;;;;;24.79;58.52;102081.19;5025527;28;1315;-79
2023/07/10 10:39:46;;;;;;;;;;;;;;;24.78;57.27;102087.50;5025122;28;1373;-79
2023/07/10 10:42:20;;;;;;;;;;;;;;;24.81;57.41;102092.41;5038750;28;1584;-79
2023/07/10 10:44:55;;;;;;;;;;;;;;;24.66;58.06;102067.78;5025370;28;1957;-79
2023/07/10 10:47:20;;;;;;;;;;;;;;;24.56;57.66;102083.19;5022076;28;1335;-79
2023/07/10 10:50:02;;;;;;;;;;;;;;;24.62;56.31;102077.94;5027579;28;1126;-79
2023/07/10 10:52:34;;;;;;;;;;;;;;;24.42;56.31;102076.88;5041055;28;1413;-79
2023/07/10 10:55:18;;;;;;;;;;;;;;;24.44;56.87;102082.00;5028305;28;1058;-79
2023/07/10 10:58:11;;;;;;;;;;;;;;;24.64;55.96;102080.41;5021243;28;1110;-79
2023/07/10 11:00:43;;;;;;;;;;;;;;;24.67;54.52;102090.66;5023285;28;1053;-79
2023/07/10 11:03:23;;;;;;;;;;;;;;;24.54;53.59;102090.47;5028599;28;1267;-79
2023/07/10 11:05:50;;;;;;;;;;;;;;;24.26;54.65;102100.94;5024178;28;1897;-79
2023/07/10 11:08:24;;;;;;;;;;;;;;;24.23;55.36;102103.94;5023971;28;1130;-79
2023/07/10 11:10:51;;;;;;;;;;;;;;;24.28;54.35;102090.97;5024008;28;1208;-79
2023/07/10 11:13:31;;;;;;;;;;;;;;;24.21;54.52;102100.66;5020837;28;1347;-79
2023/07/10 11:15:57;;;;;;;;;;;;;;;24.17;54.56;102089.59;5023569;28;1280;-79
2023/07/10 11:18:23;;;;;;;;;;;;;;;24.32;54.55;102086.94;5025259;28;1156;-79
2023/07/10 11:20:49;;;;;;;;;;;;;;;24.51;54.61;102101.47;5040654;28;960;-79
2023/07/10 11:23:32;;;;;;;;;;;;;;;24.58;53.36;102081.16;5026366;28;995;-79
2023/07/10 11:26:02;;;;;;;;;;;;;;;24.63;54.20;102078.75;5011907;28;1971;-79
2023/07/10 11:28:29;;;;;;;;;;;;;;;24.79;53.31;102073.22;5020908;28;1256;-79
2023/07/10 11:31:13;;;;;;;;;;;;;;;24.85;53.32;102077.78;5025330;28;1420;-81
2023/07/10 11:33:41;;;;;;;;;;;;;;;24.99;53.48;102077.88;5024614;28;1085;-78
2023/07/10 11:36:11;;;;;;;;;;;;;;;24.94;54.08;102074.97;5016285;28;1132;-79
2023/07/10 11:38:53;;;;;;;;;;;;;;;25.11;54.30;102076.38;5024987;28;1061;-79
2023/07/10 11:41:23;;;;;;;;;;;;;;;25.31;53.49;102072.09;5016525;28;1044;-79
2023/07/10 11:43:52;;;;;;;;;;;;;;;25.52;51.72;102067.72;5027276;28;1142;-78
2023/07/10 11:46:22;;;;;;;;;;;;;;;25.49;52.80;102073.44;5025353;28;1973;-79
2023/07/10 11:49:06;;;;;;;;;;;;;;;25.57;52.24;102071.44;5038653;28;1287;-79
2023/07/10 11:51:35;;;;;;;;;;;;;;;25.68;52.04;102067.44;5035356;28;1215;-79
2023/07/10 11:54:20;;;;;;;;;;;;;;;25.85;52.21;102074.09;5022741;28;1099;-80
2023/07/10 11:57:10;;;;;;;;;;;;;;;25.88;51.64;102071.06;5010059;28;1493;-79
2023/07/10 11:59:36;;;;;;;;;;;;;;;25.80;52.07;102076.53;5020101;28;1185;-79
2023/07/10 12:02:02;;;;;;;;;;;;;;;25.77;51.73;102076.09;5024449;28;1217;-79
2023/07/10 12:04:28;;;;;;;;;;;;;;;25.82;51.23;102071.84;5034476;28;1192;-79
2023/07/10 12:06:56;;;;;;;;;;;;;;;25.78;50.99;102065.28;5021126;28;1963;-79
2023/07/10 12:09:21;;;;;;;;;;;;;;;25.74;47.42;102066.66;5020830;28;1372;-80
2023/07/10 12:11:47;;;;;;;;;;;;;;;25.48;49.20;102066.50;5039913;28;1271;-79
2023/07/10 12:14:17;;;;;;;;;;;;;;;25.74;47.75;102066.66;5038383;28;1403;-79
2023/07/10 12:16:55;;;;;;;;;;;;;;;25.64;48.40;102060.88;5024003;28;1088;-79
2023/07/10 12:19:25;;;;;;;;;;;;;;;25.78;50.09;102056.47;5038234;28;1259;-81
2023/07/10 12:21:50;;;;;;;;;;;;;;;25.86;50.05;102059.81;5021849;28;1115;-79
2023/07/10 12:24:16;;;;;;;;;;;;;;;25.82;49.44;102058.56;5023391;28;1559;-79
2023/07/10 12:26:41;;;;;;;;;;;;;;;25.75;49.30;102063.03;5023930;28;1914;-79
2023/07/10 12:29:11;;;;;;;;;;;;;;;25.73;49.95;102059.69;5037767;28;1377;-79
2023/07/10 12:31:37;;;;;;;;;;;;;;;25.82;49.80;102055.91;5021552;28;1288;-79
2023/07/10 12:34:03;;;;;;;;;;;;;;;25.89;49.79;102053.28;5018835;28;1255;-79
2023/07/10 12:36:31;;;;;;;;;;;;;;;26.03;48.32;102054.16;5020912;28;1344;-79
2023/07/10 12:38:58;;;;;;;;;;;;;;;25.83;49.38;102049.56;5025096;28;999;-79
2023/07/10 12:41:24;;;;;;;;;;;;;;;25.81;47.73;102054.28;5020939;28;1311;-78
2023/07/10 12:43:55;;;;;;;;;;;;;;;25.72;49.23;102052.75;5017237;28;1365;-79
2023/07/10 12:46:24;;;;;;;;;;;;;;;25.66;49.34;102045.56;5025630;28;1959;-79
2023/07/10 12:48:55;;;;;;;;;;;;;;;25.73;50.30;102038.44;5023757;28;1292;-79